createdAt,value
2022-10-26T00:01:07.199Z,10.90
2022-10-26T00:03:35.612Z,10.80
2022-10-26T00:06:04.288Z,10.90
2022-10-26T00:08:32.407Z,10.80
2022-10-26T00:11:00.326Z,10.80
2022-10-26T00:13:28.481Z,10.80
2022-10-26T00:15:56.429Z,10.80
2022-10-26T00:18:25.847Z,10.80
2022-10-26T00:20:53.805Z,10.80
2022-10-26T00:23:21.820Z,10.40
2022-10-26T00:25:55.168Z,10.70
2022-10-26T00:28:23.049Z,10.70
2022-10-26T00:30:51.071Z,10.70
2022-10-26T00:33:19.199Z,10.70
2022-10-26T00:35:50.050Z,10.70
2022-10-26T00:38:17.915Z,10.60
2022-10-26T00:40:45.824Z,10.70
2022-10-26T00:43:18.036Z,10.70
2022-10-26T00:45:46.640Z,10.60
2022-10-26T00:48:19.797Z,10.60
2022-10-26T00:50:48.389Z,10.60
2022-10-26T00:53:18.685Z,10.60
2022-10-26T00:55:47.937Z,10.60
2022-10-26T00:58:16.836Z,10.60
2022-10-26T01:00:44.784Z,10.60
2022-10-26T01:03:12.941Z,10.50
2022-10-26T01:05:41.932Z,10.50
2022-10-26T01:08:10.353Z,10.60
2022-10-26T01:10:41.179Z,10.50
2022-10-26T01:13:09.373Z,10.50
2022-10-26T01:15:40.177Z,10.50
2022-10-26T01:18:11.638Z,10.50
2022-10-26T01:21:00.506Z,10.50
2022-10-26T01:23:31.838Z,10.50
2022-10-26T01:26:17.316Z,10.50
2022-10-26T01:28:54.176Z,10.40
2022-10-26T01:31:28.899Z,10.50
2022-10-26T01:34:02.340Z,10.50
2022-10-26T01:39:03.851Z,10.40
2022-10-26T01:41:33.892Z,10.40
2022-10-26T01:44:03.696Z,10.40
2022-10-26T01:46:34.539Z,10.40
2022-10-26T01:49:04.879Z,10.40
2022-10-26T01:51:33.041Z,10.30
2022-10-26T01:54:00.967Z,10.30
2022-10-26T01:56:30.224Z,10.30
2022-10-26T01:59:03.776Z,10.30
2022-10-26T02:01:42.393Z,10.30
2022-10-26T02:04:16.272Z,10.30
2022-10-26T02:06:50.143Z,10.30
2022-10-26T02:09:21.379Z,10.30
2022-10-26T02:11:51.274Z,10.30
2022-10-26T02:14:22.751Z,10.30
2022-10-26T02:16:56.247Z,10.20
2022-10-26T02:19:29.476Z,10.30
2022-10-26T02:22:01.548Z,10.30
2022-10-26T02:24:30.519Z,10.30
2022-10-26T02:26:59.196Z,10.30
2022-10-26T02:29:27.564Z,10.30
2022-10-26T02:31:58.119Z,10.30
2022-10-26T02:34:28.268Z,10.30
2022-10-26T02:36:57.871Z,10.30
2022-10-26T02:39:27.323Z,10.30
2022-10-26T02:41:56.361Z,10.30
2022-10-26T02:44:25.545Z,10.30
2022-10-26T02:46:53.937Z,10.30
2022-10-26T02:49:23.508Z,10.30
2022-10-26T02:51:54.354Z,10.30
2022-10-26T02:54:27.493Z,10.30
2022-10-26T02:56:57.416Z,10.30
2022-10-26T02:59:27.280Z,10.30
2022-10-26T03:01:55.745Z,10.40
2022-10-26T03:04:30.570Z,10.40
2022-10-26T03:06:58.572Z,10.40
2022-10-26T03:09:26.551Z,10.30
2022-10-26T03:11:54.695Z,10.40
2022-10-26T03:14:22.646Z,10.30
2022-10-26T03:19:19.546Z,10.30
2022-10-26T03:21:48.806Z,10.30
2022-10-26T03:24:16.686Z,10.30
2022-10-26T03:26:44.665Z,10.30
2022-10-26T03:29:12.649Z,10.30
2022-10-26T03:31:40.581Z,10.30
2022-10-26T03:34:08.494Z,10.30
2022-10-26T03:36:36.353Z,10.30
2022-10-26T03:39:05.652Z,10.30
2022-10-26T03:41:33.528Z,10.30
2022-10-26T03:44:01.470Z,10.20
2022-10-26T03:46:29.374Z,10.20
2022-10-26T03:48:57.283Z,10.20
2022-10-26T03:51:25.376Z,10.20
2022-10-26T03:53:53.355Z,10.20
2022-10-26T03:56:22.708Z,10.20
2022-10-26T03:58:50.621Z,10.20
2022-10-26T04:01:18.500Z,10.20
2022-10-26T04:03:46.528Z,10.10
2022-10-26T04:06:14.617Z,10.20
2022-10-26T04:08:42.660Z,10.10
2022-10-26T04:11:12.473Z,10.10
2022-10-26T04:13:41.716Z,10.20
2022-10-26T04:16:09.560Z,10.10
2022-10-26T04:18:37.650Z,10.10
2022-10-26T04:21:05.684Z,10.10
2022-10-26T04:23:33.588Z,10.10
2022-10-26T04:26:01.497Z,10.10
2022-10-26T04:28:29.381Z,10.00
2022-10-26T04:30:58.642Z,10.00
2022-10-26T04:33:26.572Z,10.00
2022-10-26T04:35:59.289Z,10.00
2022-10-26T04:38:27.200Z,10.00
2022-10-26T04:40:55.133Z,10.00
2022-10-26T04:43:23.056Z,10.00
2022-10-26T04:45:51.090Z,10.00
2022-10-26T04:48:20.379Z,10.00
2022-10-26T04:50:48.535Z,9.90
2022-10-26T04:53:16.444Z,9.90
2022-10-26T04:55:44.437Z,9.90
2022-10-26T04:58:12.637Z,9.90
2022-10-26T05:00:40.638Z,9.90
2022-10-26T05:03:08.651Z,9.80
2022-10-26T05:05:37.957Z,9.80
2022-10-26T05:08:06.149Z,9.80
2022-10-26T05:10:34.046Z,9.80
2022-10-26T05:13:02.335Z,9.80
2022-10-26T05:15:30.389Z,9.80
2022-10-26T05:17:58.793Z,9.80
2022-10-26T05:20:29.885Z,9.70
2022-10-26T05:23:01.006Z,9.70
2022-10-26T05:25:29.894Z,9.70
2022-10-26T05:27:58.515Z,9.70
2022-10-26T05:30:26.655Z,9.60
2022-10-26T05:32:55.060Z,9.60
2022-10-26T05:35:23.004Z,9.60
2022-10-26T05:37:51.105Z,9.60
2022-10-26T05:40:20.336Z,9.60
2022-10-26T05:42:48.642Z,9.50
2022-10-26T05:45:18.215Z,9.50
2022-10-26T05:47:46.596Z,9.50
2022-10-26T05:50:14.863Z,9.50
2022-10-26T05:52:42.995Z,9.50
2022-10-26T05:55:11.745Z,9.50
2022-10-26T05:57:41.339Z,9.50
2022-10-26T06:00:10.634Z,9.40
2022-10-26T06:02:42.787Z,9.40
2022-10-26T06:05:12.084Z,9.40
2022-10-26T06:07:40.249Z,9.40
2022-10-26T06:10:08.827Z,9.30
2022-10-26T06:12:36.984Z,9.30
2022-10-26T06:15:07.093Z,9.30
2022-10-26T06:17:39.695Z,9.30
2022-10-26T06:22:52.525Z,9.20
2022-10-26T06:25:25.026Z,9.20
2022-10-26T06:27:56.657Z,9.20
2022-10-26T06:30:26.018Z,9.20
2022-10-26T06:33:01.459Z,9.20
2022-10-26T06:35:45.208Z,9.20
2022-10-26T06:38:15.599Z,9.30
2022-10-26T06:40:44.575Z,9.20
2022-10-26T06:43:14.505Z,9.20
2022-10-26T06:45:46.060Z,9.20
2022-10-26T06:48:16.633Z,9.20
2022-10-26T06:50:47.551Z,9.20
2022-10-26T06:53:20.078Z,9.20
2022-10-26T06:55:49.772Z,9.20
2022-10-26T06:58:19.010Z,9.20
2022-10-26T07:00:49.437Z,9.20
2022-10-26T07:03:17.403Z,9.20
2022-10-26T07:05:45.813Z,9.30
2022-10-26T07:08:13.753Z,9.30
2022-10-26T07:10:42.313Z,9.30
2022-10-26T07:13:10.957Z,9.30
2022-10-26T07:15:39.343Z,9.40
2022-10-26T07:18:08.917Z,9.40
2022-10-26T07:20:37.466Z,9.40
2022-10-26T07:23:06.965Z,9.50
2022-10-26T07:25:35.303Z,9.50
2022-10-26T07:28:03.316Z,9.50
2022-10-26T07:30:31.888Z,9.70
2022-10-26T07:33:00.377Z,9.60
2022-10-26T07:35:29.641Z,9.70
2022-10-26T07:37:58.332Z,9.70
2022-10-26T07:40:26.609Z,9.70
2022-10-26T07:42:57.037Z,9.80
2022-10-26T07:45:25.006Z,9.80
2022-10-26T07:47:52.953Z,9.90
2022-10-26T07:50:20.864Z,9.90
2022-10-26T07:52:50.541Z,9.90
2022-10-26T07:55:19.164Z,10.00
2022-10-26T07:57:49.711Z,10.00
2022-10-26T08:00:22.780Z,10.00
2022-10-26T08:02:50.740Z,10.10
2022-10-26T08:05:18.733Z,10.10
2022-10-26T08:07:46.874Z,10.10
2022-10-26T08:10:16.433Z,10.10
2022-10-26T08:12:44.606Z,10.20
2022-10-26T08:15:12.539Z,10.20
2022-10-26T08:17:40.457Z,10.20
2022-10-26T08:20:08.920Z,10.30
2022-10-26T08:22:36.835Z,10.40
2022-10-26T08:25:04.916Z,10.40
2022-10-26T08:27:34.151Z,10.40
2022-10-26T08:30:02.173Z,10.70
2022-10-26T08:32:30.070Z,10.50
2022-10-26T08:34:57.982Z,10.50
2022-10-26T08:37:25.918Z,10.60
2022-10-26T08:39:55.345Z,10.60
2022-10-26T08:42:29.338Z,10.70
2022-10-26T08:45:00.614Z,10.70
2022-10-26T08:47:31.196Z,10.80
2022-10-26T08:50:01.006Z,10.80
2022-10-26T08:52:32.426Z,10.90
2022-10-26T08:55:01.351Z,10.90
2022-10-26T08:57:31.262Z,11.00
2022-10-26T09:00:02.660Z,11.00
2022-10-26T09:02:30.677Z,11.10
2022-10-26T09:05:00.126Z,11.10
2022-10-26T09:07:36.973Z,11.10
2022-10-26T09:10:08.625Z,11.20
2022-10-26T09:12:43.068Z,11.20
2022-10-26T09:15:16.002Z,11.30
2022-10-26T09:17:48.917Z,11.40
2022-10-26T09:20:26.691Z,11.40
2022-10-26T09:22:58.967Z,11.50
2022-10-26T09:25:28.499Z,11.60
2022-10-26T09:27:57.900Z,11.60
2022-10-26T09:30:27.125Z,11.70
2022-10-26T09:32:58.129Z,11.80
2022-10-26T09:35:27.273Z,11.90
2022-10-26T09:37:56.708Z,12.00
2022-10-26T09:40:28.189Z,12.10
2022-10-26T09:42:59.193Z,12.20
2022-10-26T09:45:31.341Z,12.20
2022-10-26T09:48:05.186Z,12.40
2022-10-26T09:50:35.377Z,12.40
2022-10-26T09:53:03.414Z,12.60
2022-10-26T09:55:32.120Z,12.70
2022-10-26T09:58:02.184Z,12.80
2022-10-26T10:00:31.878Z,12.90
2022-10-26T10:03:00.095Z,13.00
2022-10-26T10:08:18.157Z,13.10
2022-10-26T10:10:56.149Z,13.30
2022-10-26T10:13:25.232Z,13.30
2022-10-26T10:15:55.572Z,13.50
2022-10-26T10:18:23.949Z,13.50
2022-10-26T10:20:53.056Z,13.60
2022-10-26T10:23:26.966Z,13.70
2022-10-26T10:26:01.642Z,13.80
2022-10-26T10:28:29.660Z,14.20
2022-10-26T10:31:00.476Z,13.90
2022-10-26T10:33:38.666Z,13.90
2022-10-26T10:36:08.772Z,14.00
2022-10-26T10:38:43.841Z,14.10
2022-10-26T10:41:20.223Z,14.20
2022-10-26T10:43:49.678Z,14.20
2022-10-26T10:46:23.945Z,14.30
2022-10-26T10:48:54.893Z,14.30
2022-10-26T10:51:24.725Z,14.40
2022-10-26T10:53:53.130Z,14.50
2022-10-26T10:56:28.800Z,14.60
2022-10-26T10:59:02.863Z,14.60
2022-10-26T11:01:37.880Z,14.70
2022-10-26T11:06:44.635Z,14.80
2022-10-26T11:09:14.265Z,14.90
2022-10-26T11:11:45.685Z,15.00
2022-10-26T11:14:15.963Z,15.00
2022-10-26T11:16:47.397Z,15.10
2022-10-26T11:19:19.353Z,15.20
2022-10-26T11:21:51.709Z,15.50
2022-10-26T11:24:24.256Z,15.30
2022-10-26T11:26:55.667Z,15.40
2022-10-26T11:29:27.452Z,15.50
2022-10-26T11:32:00.187Z,15.60
2022-10-26T11:34:32.047Z,15.60
2022-10-26T11:37:04.559Z,15.80
2022-10-26T11:39:35.562Z,15.90
2022-10-26T11:42:07.103Z,16.00
2022-10-26T11:44:39.009Z,16.20
2022-10-26T11:47:13.498Z,16.30
2022-10-26T11:49:44.218Z,16.50
2022-10-26T11:52:17.736Z,16.60
2022-10-26T11:54:48.557Z,16.80
2022-10-26T11:57:17.673Z,17.00
2022-10-26T11:59:48.250Z,17.20
2022-10-26T12:02:19.626Z,17.40
2022-10-26T12:04:50.077Z,17.60
2022-10-26T12:07:21.435Z,18.90
2022-10-26T12:09:49.415Z,18.00
2022-10-26T12:12:20.995Z,18.20
2022-10-26T12:14:51.572Z,18.40
2022-10-26T12:17:24.252Z,18.50
2022-10-26T12:19:55.916Z,18.50
2022-10-26T12:22:30.034Z,18.60
2022-10-26T12:25:11.126Z,18.60
2022-10-26T12:27:52.377Z,18.70
2022-10-26T12:30:28.993Z,18.60
2022-10-26T12:32:58.578Z,18.60
2022-10-26T12:35:37.096Z,18.70
2022-10-26T12:38:19.889Z,18.60
2022-10-26T12:40:48.253Z,18.80
2022-10-26T12:43:36.269Z,19.00
2022-10-26T12:46:22.854Z,19.20
2022-10-26T12:48:53.199Z,19.40
2022-10-26T12:51:39.657Z,19.60
2022-10-26T12:54:18.219Z,19.80
2022-10-26T12:56:51.739Z,19.90
2022-10-26T12:59:23.717Z,20.00
2022-10-26T13:01:55.872Z,20.30
2022-10-26T13:04:49.457Z,20.50
2022-10-26T13:07:19.368Z,20.80
2022-10-26T13:09:50.414Z,21.10
2022-10-26T13:12:18.402Z,21.50
2022-10-26T13:14:54.809Z,21.80
2022-10-26T13:17:25.495Z,22.10
2022-10-26T13:19:58.324Z,22.50
2022-10-26T13:22:26.354Z,22.60
2022-10-26T13:24:55.320Z,22.70
2022-10-26T13:27:25.483Z,22.80
2022-10-26T13:30:18.704Z,22.80
2022-10-26T13:32:50.840Z,22.90
2022-10-26T13:35:21.134Z,23.00
2022-10-26T13:37:50.335Z,23.00
2022-10-26T13:40:19.898Z,23.10
2022-10-26T13:42:48.940Z,23.20
2022-10-26T13:45:19.369Z,23.20
2022-10-26T13:47:49.655Z,23.10
2022-10-26T13:50:18.915Z,23.20
2022-10-26T13:52:49.440Z,23.30
2022-10-26T13:55:21.610Z,23.20
2022-10-26T13:57:56.646Z,23.10
2022-10-26T14:00:24.695Z,23.20
2022-10-26T14:02:52.792Z,23.20
2022-10-26T14:05:21.192Z,23.40
2022-10-26T14:07:54.270Z,23.60
2022-10-26T14:10:26.240Z,23.70
2022-10-26T14:12:54.495Z,23.50
2022-10-26T14:15:24.940Z,23.50
2022-10-26T14:17:53.516Z,23.70
2022-10-26T14:20:22.836Z,23.70
2022-10-26T14:22:52.195Z,23.70
2022-10-26T14:25:30.947Z,23.80
2022-10-26T14:28:21.599Z,23.80
2022-10-26T14:30:51.192Z,23.80
2022-10-26T14:33:19.655Z,23.80
2022-10-26T14:35:48.432Z,23.70
2022-10-26T14:38:20.829Z,23.50
2022-10-26T14:40:49.525Z,23.60
2022-10-26T14:43:19.093Z,23.50
2022-10-26T14:45:49.943Z,23.50
2022-10-26T14:48:21.879Z,23.40
2022-10-26T14:51:00.185Z,23.40
2022-10-26T14:53:33.912Z,23.20
2022-10-26T14:56:02.037Z,23.20
2022-10-26T14:58:30.759Z,23.20
2022-10-26T15:01:17.424Z,23.10
2022-10-26T15:03:45.861Z,23.10
2022-10-26T15:06:23.371Z,23.10
2022-10-26T15:08:57.350Z,22.90
2022-10-26T15:11:25.630Z,22.90
2022-10-26T15:13:54.241Z,22.80
2022-10-26T15:16:23.457Z,22.70
2022-10-26T15:18:53.281Z,22.50
2022-10-26T15:21:24.208Z,22.40
2022-10-26T15:23:52.671Z,22.10
2022-10-26T15:26:21.991Z,21.90
2022-10-26T15:28:49.999Z,21.70
2022-10-26T15:31:30.115Z,21.60
2022-10-26T15:34:18.758Z,21.30
2022-10-26T15:36:46.660Z,21.20
2022-10-26T15:39:14.703Z,21.00
2022-10-26T15:41:47.940Z,20.80
2022-10-26T15:44:18.440Z,20.60
2022-10-26T15:46:46.977Z,20.60
2022-10-26T15:49:19.261Z,20.50
2022-10-26T15:51:47.844Z,20.40
2022-10-26T15:54:16.056Z,20.40
2022-10-26T15:56:44.707Z,20.10
2022-10-26T15:59:17.815Z,19.90
2022-10-26T16:01:45.919Z,19.90
2022-10-26T16:04:13.998Z,19.70
2022-10-26T16:06:42.756Z,19.60
2022-10-26T16:09:13.699Z,19.50
2022-10-26T16:11:41.619Z,19.40
2022-10-26T16:14:10.245Z,19.30
2022-10-26T16:16:39.828Z,19.20
2022-10-26T16:21:55.751Z,19.00
2022-10-26T16:24:23.691Z,18.90
2022-10-26T16:26:51.761Z,18.80
2022-10-26T16:29:20.340Z,18.70
2022-10-26T16:31:49.651Z,18.60
2022-10-26T16:34:17.602Z,18.60
2022-10-26T16:36:45.521Z,18.50
2022-10-26T16:39:14.974Z,18.40
2022-10-26T16:41:42.919Z,18.30
2022-10-26T16:44:12.289Z,18.30
2022-10-26T16:46:40.231Z,18.20
2022-10-26T16:49:09.586Z,18.10
2022-10-26T16:51:37.504Z,18.00
2022-10-26T16:54:05.722Z,17.90
2022-10-26T16:56:33.849Z,18.40
2022-10-26T16:59:01.828Z,17.80
2022-10-26T17:01:29.923Z,17.70
2022-10-26T17:03:58.046Z,17.70
2022-10-26T17:06:27.381Z,17.60
2022-10-26T17:08:55.338Z,17.60
2022-10-26T17:11:23.439Z,17.50
2022-10-26T17:13:54.384Z,17.50
2022-10-26T17:16:23.322Z,17.50
2022-10-26T17:18:51.750Z,17.40
2022-10-26T17:21:20.703Z,17.40
2022-10-26T17:23:49.926Z,17.30
2022-10-26T17:26:17.806Z,17.20
2022-10-26T17:28:46.203Z,17.20
2022-10-26T17:31:15.062Z,17.10
2022-10-26T17:33:43.734Z,17.10
2022-10-26T17:36:12.557Z,17.00
2022-10-26T17:38:41.122Z,17.00
2022-10-26T17:41:10.793Z,17.00
2022-10-26T17:43:39.422Z,16.90
2022-10-26T17:46:08.067Z,16.90
2022-10-26T17:48:35.969Z,16.90
2022-10-26T17:51:05.230Z,16.90
2022-10-26T17:53:33.343Z,16.80
2022-10-26T17:56:01.840Z,16.80
2022-10-26T17:58:31.205Z,16.80
2022-10-26T18:01:01.442Z,16.70
2022-10-26T18:03:29.730Z,16.70
2022-10-26T18:05:57.811Z,16.70
2022-10-26T18:08:25.932Z,16.60
2022-10-26T18:10:55.213Z,16.80
2022-10-26T18:13:23.273Z,16.60
2022-10-26T18:15:52.515Z,16.60
2022-10-26T18:18:20.405Z,16.60
2022-10-26T18:20:48.319Z,16.60
2022-10-26T18:23:16.662Z,16.60
2022-10-26T18:25:44.561Z,16.50
2022-10-26T18:30:45.279Z,16.40
2022-10-26T18:33:14.694Z,16.40
2022-10-26T18:35:42.626Z,16.30
2022-10-26T18:38:10.497Z,16.30
2022-10-26T18:40:38.451Z,16.30
2022-10-26T18:43:06.421Z,16.30
2022-10-26T18:45:34.392Z,16.30
2022-10-26T18:48:02.387Z,16.30
2022-10-26T18:50:31.746Z,16.20
2022-10-26T18:52:59.730Z,16.20
2022-10-26T18:55:27.703Z,16.10
2022-10-26T18:57:55.612Z,16.10
2022-10-26T19:00:23.781Z,16.10
2022-10-26T19:02:52.633Z,16.00
2022-10-26T19:05:20.758Z,16.00
2022-10-26T19:07:50.005Z,16.00
2022-10-26T19:10:18.003Z,16.00
2022-10-26T19:12:45.964Z,16.00
2022-10-26T19:15:14.105Z,15.90
2022-10-26T19:17:41.972Z,15.90
2022-10-26T19:20:12.895Z,15.80
2022-10-26T19:22:40.829Z,15.80
2022-10-26T19:25:10.791Z,15.80
2022-10-26T19:27:38.702Z,15.70
2022-10-26T19:30:07.120Z,15.70
2022-10-26T19:32:35.107Z,15.60
2022-10-26T19:35:03.014Z,15.60
2022-10-26T19:37:30.969Z,15.60
2022-10-26T19:39:59.640Z,15.50
2022-10-26T19:42:29.247Z,15.50
2022-10-26T19:44:57.144Z,15.50
2022-10-26T19:47:24.987Z,15.40
2022-10-26T19:49:52.888Z,15.40
2022-10-26T19:52:20.795Z,15.40
2022-10-26T19:54:48.704Z,15.40
2022-10-26T19:57:16.707Z,15.40
2022-10-26T19:59:46.026Z,15.40
2022-10-26T20:02:13.925Z,15.40
2022-10-26T20:04:41.905Z,15.40
2022-10-26T20:07:09.826Z,15.40
2022-10-26T20:09:37.934Z,15.40
2022-10-26T20:12:06.131Z,15.40
2022-10-26T20:14:34.127Z,15.40
2022-10-26T20:17:04.724Z,15.40
2022-10-26T20:19:32.652Z,15.30
2022-10-26T20:22:00.663Z,15.30
2022-10-26T20:24:28.647Z,15.30
2022-10-26T20:26:56.708Z,15.30
2022-10-26T20:29:24.761Z,15.30
2022-10-26T20:31:55.972Z,15.30
2022-10-26T20:34:25.604Z,15.30
2022-10-26T20:36:53.654Z,15.30
2022-10-26T20:39:21.996Z,15.30
2022-10-26T20:41:50.128Z,15.30
2022-10-26T20:44:21.290Z,15.30
2022-10-26T20:46:49.641Z,15.30
2022-10-26T20:49:18.126Z,15.30
2022-10-26T20:52:15.392Z,15.20
2022-10-26T20:54:40.575Z,15.30
2022-10-26T20:57:09.103Z,15.30
2022-10-26T20:59:40.113Z,16.60
2022-10-26T21:02:09.702Z,15.30
2022-10-26T21:04:37.694Z,15.30
2022-10-26T21:07:06.987Z,15.30
2022-10-26T21:09:36.873Z,15.30
2022-10-26T21:12:05.088Z,15.30
2022-10-26T21:14:35.918Z,15.30
2022-10-26T21:17:03.979Z,15.30
2022-10-26T21:19:31.937Z,15.30
2022-10-26T21:21:59.884Z,15.30
2022-10-26T21:24:29.165Z,15.30
2022-10-26T21:26:57.169Z,15.20
2022-10-26T21:29:25.121Z,15.20
2022-10-26T21:31:53.077Z,15.20
2022-10-26T21:34:21.085Z,15.20
2022-10-26T21:36:48.971Z,15.20
2022-10-26T21:39:16.850Z,15.20
2022-10-26T21:41:46.220Z,15.20
2022-10-26T21:44:32.715Z,15.10
2022-10-26T21:47:02.043Z,15.10
2022-10-26T21:49:29.990Z,15.10
2022-10-26T21:51:57.997Z,15.10
2022-10-26T21:54:25.856Z,15.10
2022-10-26T21:56:55.084Z,15.10
2022-10-26T21:59:23.028Z,15.10
2022-10-26T22:01:51.067Z,15.10
2022-10-26T22:04:19.067Z,15.10
2022-10-26T22:06:46.995Z,15.10
2022-10-26T22:09:14.889Z,15.00
2022-10-26T22:11:42.758Z,15.00
2022-10-26T22:14:12.481Z,15.00
2022-10-26T22:16:40.386Z,15.00
2022-10-26T22:19:09.096Z,15.00
2022-10-26T22:21:37.922Z,15.00
2022-10-26T22:24:06.190Z,14.90
2022-10-26T22:26:35.141Z,14.90
2022-10-26T22:29:03.081Z,14.90
2022-10-26T22:31:33.647Z,14.90
2022-10-26T22:34:06.414Z,14.80
2022-10-26T22:36:35.700Z,14.80
2022-10-26T22:39:03.674Z,14.80
2022-10-26T22:41:31.599Z,14.70
2022-10-26T22:43:59.528Z,14.70
2022-10-26T22:46:28.351Z,14.70
2022-10-26T22:48:58.287Z,14.70
2022-10-26T22:51:26.726Z,14.70
2022-10-26T22:53:55.256Z,14.70
2022-10-26T22:56:24.251Z,14.60
2022-10-26T22:58:52.993Z,14.60
2022-10-26T23:01:21.722Z,14.60
2022-10-26T23:03:49.877Z,14.60
2022-10-26T23:06:19.813Z,14.60
2022-10-26T23:08:47.773Z,14.50
2022-10-26T23:11:16.335Z,14.50
2022-10-26T23:13:44.350Z,14.50
2022-10-26T23:16:12.951Z,14.40
2022-10-26T23:18:41.283Z,14.40
2022-10-26T23:21:10.295Z,14.40
2022-10-26T23:23:40.072Z,14.40
2022-10-26T23:26:08.862Z,14.40
2022-10-26T23:28:37.209Z,14.40
2022-10-26T23:31:05.528Z,14.30
2022-10-26T23:33:33.915Z,14.30
2022-10-26T23:36:02.212Z,14.30
2022-10-26T23:38:30.064Z,14.30
2022-10-26T23:41:00.424Z,14.30
2022-10-26T23:43:28.757Z,14.20
2022-10-26T23:45:56.664Z,14.20
2022-10-26T23:48:24.615Z,14.10
2022-10-26T23:50:52.493Z,14.10
2022-10-26T23:53:21.952Z,14.10
2022-10-26T23:55:50.252Z,14.10
2022-10-26T23:58:19.720Z,14.10
